createdAt,value
2023-04-29T00:00:55.997Z,101120.03
2023-04-29T00:03:29.319Z,101120.03
2023-04-29T00:05:57.707Z,101122.66
2023-04-29T00:08:25.800Z,101116.88
2023-04-29T00:10:53.591Z,101127.59
2023-04-29T00:13:21.508Z,101122.44
2023-04-29T00:15:49.454Z,101119.91
2023-04-29T00:18:17.107Z,101130.50
2023-04-29T00:20:48.334Z,101127.00
2023-04-29T00:23:16.318Z,101128.81
2023-04-29T00:25:46.112Z,101127.13
2023-04-29T00:28:13.941Z,101130.00
2023-04-29T00:30:41.703Z,101129.28
2023-04-29T00:33:09.531Z,101132.06
2023-04-29T00:35:37.328Z,101137.69
2023-04-29T00:38:06.985Z,101139.38
2023-04-29T00:40:36.725Z,101142.84
2023-04-29T00:43:04.681Z,101150.69
2023-04-29T00:45:32.486Z,101154.88
2023-04-29T00:48:00.285Z,101156.81
2023-04-29T00:50:28.462Z,101156.91
2023-04-29T00:52:56.652Z,101148.13
2023-04-29T00:55:27.444Z,101161.34
2023-04-29T00:57:55.351Z,101164.63
2023-04-29T01:00:26.251Z,101166.56
2023-04-29T01:02:57.340Z,101167.50
2023-04-29T01:05:25.446Z,101173.53
2023-04-29T01:08:00.765Z,101179.53
2023-04-29T01:10:31.522Z,101181.34
2023-04-29T01:13:05.660Z,101186.63
2023-04-29T01:15:39.150Z,101184.09
2023-04-29T01:18:12.119Z,101194.69
2023-04-29T01:20:40.195Z,101190.22
2023-04-29T01:23:08.129Z,101189.38
2023-04-29T01:25:38.301Z,101192.88
2023-04-29T01:28:11.742Z,101191.06
2023-04-29T01:30:46.006Z,101194.56
2023-04-29T01:33:18.747Z,101200.69
2023-04-29T01:35:57.723Z,101204.41
2023-04-29T01:38:32.186Z,101203.47
2023-04-29T01:41:11.779Z,101207.53
2023-04-29T01:43:40.263Z,101209.47
2023-04-29T01:46:11.179Z,101211.25
2023-04-29T01:48:40.909Z,101212.22
2023-04-29T01:51:11.831Z,101211.59
2023-04-29T01:53:41.612Z,101213.53
2023-04-29T01:56:10.878Z,101217.97
2023-04-29T01:58:39.062Z,101219.78
2023-04-29T02:01:07.531Z,101222.56
2023-04-29T02:03:37.258Z,101226.03
2023-04-29T02:06:07.323Z,101239.25
2023-04-29T02:08:35.227Z,101236.63
2023-04-29T02:11:04.987Z,101238.41
2023-04-29T02:13:34.672Z,101248.03
2023-04-29T02:16:09.393Z,101251.63
2023-04-29T02:18:37.509Z,101249.31
2023-04-29T02:21:05.808Z,101256.75
2023-04-29T02:23:33.857Z,101260.59
2023-04-29T02:26:01.937Z,101265.03
2023-04-29T02:28:29.622Z,101267.16
2023-04-29T02:30:58.779Z,101273.19
2023-04-29T02:33:26.565Z,101273.28
2023-04-29T02:35:54.267Z,101278.69
2023-04-29T02:38:22.174Z,101276.19
2023-04-29T02:40:50.447Z,101278.94
2023-04-29T02:43:18.120Z,101282.44
2023-04-29T02:45:46.526Z,101280.84
2023-04-29T02:48:16.074Z,101280.91
2023-04-29T02:50:45.618Z,101291.41
2023-04-29T02:53:13.767Z,101287.88
2023-04-29T02:55:41.768Z,101296.78
2023-04-29T02:58:09.939Z,101287.41
2023-04-29T03:00:38.045Z,101300.63
2023-04-29T03:03:05.930Z,101302.50
2023-04-29T03:05:37.388Z,101306.09
2023-04-29T03:08:07.711Z,101312.22
2023-04-29T03:10:35.704Z,101308.88
2023-04-29T03:13:05.641Z,101315.00
2023-04-29T03:15:33.599Z,101315.84
2023-04-29T03:18:01.989Z,101325.56
2023-04-29T03:20:29.867Z,101318.59
2023-04-29T03:23:02.775Z,101320.28
2023-04-29T03:25:32.460Z,101325.56
2023-04-29T03:28:00.590Z,101321.75
2023-04-29T03:30:28.526Z,101323.44
2023-04-29T03:32:56.315Z,101319.00
2023-04-29T03:35:24.028Z,101318.03
2023-04-29T03:37:51.765Z,101320.56
2023-04-29T03:40:22.807Z,101321.41
2023-04-29T03:42:50.770Z,101326.81
2023-04-29T03:45:18.792Z,101329.47
2023-04-29T03:47:48.531Z,101327.78
2023-04-29T03:50:18.432Z,101335.94
2023-04-29T03:52:47.895Z,101341.22
2023-04-29T03:55:15.869Z,101325.56
2023-04-29T03:57:45.050Z,101341.44
2023-04-29T04:00:13.999Z,101341.66
2023-04-29T04:02:42.317Z,101346.72
2023-04-29T04:05:10.933Z,101349.47
2023-04-29T04:07:38.715Z,101347.91
2023-04-29T04:10:09.656Z,101362.16
2023-04-29T04:12:37.427Z,101354.59
2023-04-29T04:15:07.520Z,101356.16
2023-04-29T04:17:35.586Z,101361.31
2023-04-29T04:20:03.680Z,101363.97
2023-04-29T04:22:33.198Z,101371.69
2023-04-29T04:25:01.276Z,101376.97
2023-04-29T04:27:29.201Z,101388.38
2023-04-29T04:29:57.139Z,101388.38
2023-04-29T04:32:26.863Z,101398.19
2023-04-29T04:34:54.944Z,101394.72
2023-04-29T04:37:22.721Z,101393.03
2023-04-29T04:39:50.507Z,101397.47
2023-04-29T04:42:18.412Z,101401.91
2023-04-29T04:44:46.446Z,101414.41
2023-04-29T04:47:14.169Z,101405.50
2023-04-29T04:49:44.172Z,101417.78
2023-04-29T04:52:14.017Z,101417.16
2023-04-29T04:54:41.952Z,101426.88
2023-04-29T04:57:11.752Z,101435.84
2023-04-29T04:59:39.592Z,101431.75
2023-04-29T05:02:08.845Z,101429.00
2023-04-29T05:04:36.723Z,101430.78
2023-04-29T05:07:05.930Z,101429.00
2023-04-29T05:09:33.994Z,101439.78
2023-04-29T05:12:02.016Z,101436.50
2023-04-29T05:14:29.751Z,101437.34
2023-04-29T05:17:00.113Z,101446.34
2023-04-29T05:19:27.883Z,101455.84
2023-04-29T05:21:55.917Z,101455.00
2023-04-29T05:24:27.009Z,101457.53
2023-04-29T05:26:57.522Z,101465.56
2023-04-29T05:29:27.158Z,101463.03
2023-04-29T05:31:54.924Z,101459.53
2023-04-29T05:34:22.833Z,101471.06
2023-04-29T05:36:50.664Z,101471.06
2023-04-29T05:39:18.946Z,101470.97
2023-04-29T05:41:48.113Z,101471.91
2023-04-29T05:44:15.942Z,101473.78
2023-04-29T05:46:43.918Z,101484.06
2023-04-29T05:49:11.607Z,101483.00
2023-04-29T05:51:41.299Z,101490.72
2023-04-29T05:54:09.205Z,101490.72
2023-04-29T05:56:37.176Z,101508.25
2023-04-29T05:59:06.297Z,101505.41
2023-04-29T06:01:34.113Z,101501.28
2023-04-29T06:04:02.094Z,101512.59
2023-04-29T06:06:30.240Z,101521.59
2023-04-29T06:08:57.985Z,101527.72
2023-04-29T06:11:26.023Z,101521.59
2023-04-29T06:13:53.739Z,101538.06
2023-04-29T06:16:23.085Z,101531.09
2023-04-29T06:18:51.005Z,101525.81
2023-04-29T06:21:18.756Z,101539.00
2023-04-29T06:23:46.467Z,101548.84
2023-04-29T06:26:14.547Z,101546.09
2023-04-29T06:28:42.239Z,101547.78
2023-04-29T06:31:10.002Z,101550.53
2023-04-29T06:33:39.295Z,101555.81
2023-04-29T06:36:07.449Z,101560.03
2023-04-29T06:38:35.562Z,101558.34
2023-04-29T06:41:04.351Z,101559.31
2023-04-29T06:43:32.390Z,101560.16
2023-04-29T06:46:00.364Z,101561.00
2023-04-29T06:48:30.358Z,101562.50
2023-04-29T06:51:00.017Z,101568.81
2023-04-29T06:53:28.262Z,101578.44
2023-04-29T06:55:56.037Z,101581.06
2023-04-29T06:58:23.986Z,101585.44
2023-04-29T07:00:52.534Z,101591.34
2023-04-29T07:03:20.470Z,101600.22
2023-04-29T07:05:48.479Z,101600.84
2023-04-29T07:08:17.588Z,101600.66
2023-04-29T07:10:45.279Z,101602.91
2023-04-29T07:13:12.971Z,101598.47
2023-04-29T07:15:40.734Z,101602.56
2023-04-29T07:18:08.516Z,101608.53
2023-04-29T07:20:37.859Z,101610.22
2023-04-29T07:23:05.539Z,101620.56
2023-04-29T07:25:34.534Z,101610.00
2023-04-29T07:28:02.256Z,101619.84
2023-04-29T07:30:30.019Z,101615.09
2023-04-29T07:32:57.956Z,101622.06
2023-04-29T07:35:25.617Z,101621.13
2023-04-29T07:37:53.343Z,101627.13
2023-04-29T07:40:21.209Z,101630.53
2023-04-29T07:42:50.302Z,101632.22
2023-04-29T07:45:17.943Z,101643.44
2023-04-29T07:47:45.791Z,101643.53
2023-04-29T07:50:13.865Z,101652.44
2023-04-29T07:52:41.583Z,101656.00
2023-04-29T07:55:10.103Z,101656.78
2023-04-29T07:57:38.272Z,101660.16
2023-04-29T08:00:08.886Z,101663.75
2023-04-29T08:02:36.756Z,101668.63
2023-04-29T08:05:05.587Z,101672.13
2023-04-29T08:07:33.576Z,101679.09
2023-04-29T08:10:01.405Z,101688.81
2023-04-29T08:12:29.065Z,101678.97
2023-04-29T08:14:56.829Z,101689.16
2023-04-29T08:17:25.918Z,101695.72
2023-04-29T08:19:53.682Z,101694.44
2023-04-29T08:22:21.368Z,101696.03
2023-04-29T08:24:49.504Z,101705.44
2023-04-29T08:27:17.161Z,101701.63
2023-04-29T08:29:44.851Z,101703.97
2023-04-29T08:32:12.869Z,101703.09
2023-04-29T08:34:42.017Z,101696.78
2023-04-29T08:37:09.767Z,101703.44
2023-04-29T08:39:37.556Z,101699.84
2023-04-29T08:42:09.655Z,101707.56
2023-04-29T08:44:37.809Z,101711.69
2023-04-29T08:47:06.249Z,101715.91
2023-04-29T08:49:34.330Z,101715.59
2023-04-29T08:52:03.582Z,101721.41
2023-04-29T08:54:32.882Z,101721.28
2023-04-29T08:57:02.715Z,101731.78
2023-04-29T08:59:30.636Z,101727.00
2023-04-29T09:01:58.739Z,101731.03
2023-04-29T09:04:32.659Z,101717.47
2023-04-29T09:07:00.567Z,101735.06
2023-04-29T09:09:30.266Z,101732.28
2023-04-29T09:11:57.953Z,101733.75
2023-04-29T09:14:26.378Z,101732.47
2023-04-29T09:16:54.254Z,101739.47
2023-04-29T09:19:32.892Z,101745.28
2023-04-29T09:22:00.916Z,101737.09
2023-04-29T09:24:33.398Z,101737.75
2023-04-29T09:27:03.520Z,101752.16
2023-04-29T09:29:32.981Z,101746.63
2023-04-29T09:32:01.162Z,101750.03
2023-04-29T09:34:33.711Z,101754.50
2023-04-29T09:37:03.559Z,101754.03
2023-04-29T09:39:40.171Z,101759.97
2023-04-29T09:42:09.716Z,101762.38
2023-04-29T09:44:39.480Z,101756.13
2023-04-29T09:47:10.775Z,101757.59
2023-04-29T09:49:41.959Z,101767.75
2023-04-29T09:52:11.972Z,101757.16
2023-04-29T09:54:44.896Z,101759.06
2023-04-29T09:57:15.971Z,101770.28
2023-04-29T09:59:45.935Z,101777.69
2023-04-29T10:02:16.381Z,101767.38
2023-04-29T10:04:48.916Z,101778.38
2023-04-29T10:07:19.159Z,101769.13
2023-04-29T10:09:52.291Z,101770.56
2023-04-29T10:12:21.796Z,101766.97
2023-04-29T10:14:56.625Z,101771.28
2023-04-29T10:17:28.204Z,101769.16
2023-04-29T10:20:03.845Z,101776.66
2023-04-29T10:22:38.242Z,101778.34
2023-04-29T10:25:09.292Z,101775.19
2023-04-29T10:27:40.060Z,101776.59
2023-04-29T10:30:11.320Z,101768.63
2023-04-29T10:32:50.486Z,101766.75
2023-04-29T10:35:20.440Z,101771.81
2023-04-29T10:37:49.169Z,101766.38
2023-04-29T10:40:21.287Z,101773.88
2023-04-29T10:42:50.374Z,101761.72
2023-04-29T10:46:26.808Z,101759.00
2023-04-29T10:48:59.590Z,101760.34
2023-04-29T10:51:32.736Z,101761.34
2023-04-29T10:54:04.913Z,101770.00
2023-04-29T10:56:40.322Z,101770.13
2023-04-29T10:59:12.069Z,101774.94
2023-04-29T11:01:46.364Z,101769.03
2023-04-29T11:04:14.665Z,101777.00
2023-04-29T11:06:47.448Z,101777.22
2023-04-29T11:09:18.108Z,101778.19
2023-04-29T11:11:48.902Z,101783.63
2023-04-29T11:14:17.553Z,101777.47
2023-04-29T11:16:50.505Z,101777.22
2023-04-29T11:19:18.546Z,101787.63
2023-04-29T11:21:47.996Z,101778.34
2023-04-29T11:24:17.487Z,101774.72
2023-04-29T11:26:46.462Z,101775.94
2023-04-29T11:29:14.312Z,101777.09
2023-04-29T11:31:42.057Z,101784.81
2023-04-29T11:34:11.686Z,101773.09
2023-04-29T11:36:39.462Z,101778.41
2023-04-29T11:39:08.986Z,101780.97
2023-04-29T11:41:37.697Z,101773.84
2023-04-29T11:44:07.537Z,101780.72
2023-04-29T11:46:35.427Z,101782.41
2023-04-29T11:49:03.206Z,101790.03
2023-04-29T11:51:32.694Z,101791.72
2023-04-29T11:54:00.446Z,101784.09
2023-04-29T11:56:28.160Z,101783.63
2023-04-29T11:58:56.996Z,101787.47
2023-04-29T12:01:24.868Z,101778.06
2023-04-29T12:03:53.016Z,101790.16
2023-04-29T12:06:20.831Z,101789.06
2023-04-29T12:08:50.019Z,101781.44
2023-04-29T12:11:20.125Z,101792.56
2023-04-29T12:13:47.831Z,101787.38
2023-04-29T12:16:15.705Z,101785.91
2023-04-29T12:18:43.427Z,101780.94
2023-04-29T12:21:11.209Z,101784.59
2023-04-29T12:23:39.253Z,101779.41
2023-04-29T12:26:09.189Z,101784.47
2023-04-29T12:28:37.212Z,101797.25
2023-04-29T12:31:07.446Z,101790.13
2023-04-29T12:33:35.833Z,101796.16
2023-04-29T12:36:05.446Z,101782.00
2023-04-29T12:38:33.566Z,101782.84
2023-04-29T12:41:01.985Z,101779.19
2023-04-29T12:43:32.316Z,101776.38
2023-04-29T12:46:02.620Z,101778.22
2023-04-29T12:48:33.189Z,101780.41
2023-04-29T12:51:02.207Z,101777.50
2023-04-29T12:53:30.901Z,101776.25
2023-04-29T12:55:59.036Z,101781.34
2023-04-29T12:58:31.216Z,101780.84
2023-04-29T13:00:59.295Z,101776.50
2023-04-29T13:03:27.327Z,101789.31
2023-04-29T13:05:55.390Z,101782.81
2023-04-29T13:08:23.252Z,101783.31
2023-04-29T13:13:25.208Z,101782.25
2023-04-29T13:15:53.047Z,101785.56
2023-04-29T13:18:20.824Z,101781.81
2023-04-29T13:20:48.520Z,101785.91
2023-04-29T13:23:16.509Z,101788.31
2023-04-29T13:25:44.211Z,101781.41
2023-04-29T13:28:12.654Z,101777.13
2023-04-29T13:30:41.837Z,101773.41
2023-04-29T13:33:12.401Z,101784.00
2023-04-29T13:35:41.792Z,101781.03
2023-04-29T13:38:10.124Z,101785.38
2023-04-29T13:40:45.341Z,101774.19
2023-04-29T13:43:21.024Z,101778.75
2023-04-29T13:46:00.575Z,101777.81
2023-04-29T13:49:02.872Z,101790.47
2023-04-29T13:51:56.245Z,101788.38
2023-04-29T14:02:21.424Z,101799.41
2023-04-29T14:04:26.019Z,101794.72
2023-04-29T14:06:54.474Z,101797.31
2023-04-29T14:09:23.977Z,101798.94
2023-04-29T14:11:54.064Z,101798.94
2023-04-29T14:14:21.781Z,101803.25
2023-04-29T14:16:50.816Z,101812.13
2023-04-29T14:19:18.810Z,101802.09
2023-04-29T14:21:48.682Z,101812.72
2023-04-29T14:24:16.682Z,101812.00
2023-04-29T14:26:44.726Z,101802.00
2023-04-29T14:29:13.066Z,101801.81
2023-04-29T14:31:41.732Z,101810.31
2023-04-29T14:34:10.812Z,101814.31
2023-04-29T14:36:38.785Z,101804.50
2023-04-29T14:39:06.473Z,101816.34
2023-04-29T14:41:34.116Z,101827.44
2023-04-29T14:44:01.849Z,101815.34
2023-04-29T14:46:30.199Z,101834.56
2023-04-29T14:48:58.000Z,101829.63
2023-04-29T14:51:29.613Z,101830.31
2023-04-29T14:53:57.470Z,101822.81
2023-04-29T14:56:25.186Z,101828.72
2023-04-29T14:58:54.980Z,101824.88
2023-04-29T15:01:22.792Z,101834.38
2023-04-29T15:03:52.452Z,101838.38
2023-04-29T15:06:20.716Z,101838.75
2023-04-29T15:08:49.805Z,101837.66
2023-04-29T15:11:17.518Z,101823.59
2023-04-29T15:13:45.391Z,101823.81
2023-04-29T15:16:13.800Z,101834.25
2023-04-29T15:18:45.753Z,101837.81
2023-04-29T15:21:13.692Z,101843.56
2023-04-29T15:23:41.407Z,101840.69
2023-04-29T15:26:10.527Z,101842.97
2023-04-29T15:28:38.265Z,101840.31
2023-04-29T15:31:06.371Z,101832.38
2023-04-29T15:33:34.401Z,101842.25
2023-04-29T15:36:02.901Z,101839.75
2023-04-29T15:38:30.773Z,101837.50
2023-04-29T15:41:00.943Z,101843.41
2023-04-29T15:43:30.188Z,101840.34
2023-04-29T15:45:58.039Z,101855.22
2023-04-29T15:48:26.096Z,101853.69
2023-04-29T15:50:54.679Z,101852.09
2023-04-29T15:53:23.181Z,101849.19
2023-04-29T15:55:51.184Z,101857.19
2023-04-29T15:58:18.972Z,101858.44
2023-04-29T16:00:48.160Z,101860.53
2023-04-29T16:03:15.984Z,101854.47
2023-04-29T16:05:44.078Z,101862.38
2023-04-29T16:08:11.845Z,101860.41
2023-04-29T16:10:39.495Z,101865.59
2023-04-29T16:13:07.316Z,101859.97
2023-04-29T16:15:35.481Z,101869.69
2023-04-29T16:18:04.742Z,101866.19
2023-04-29T16:20:33.431Z,101866.44
2023-04-29T16:23:01.140Z,101866.44
2023-04-29T16:25:28.833Z,101876.25
2023-04-29T16:27:56.529Z,101877.38
2023-04-29T16:30:24.331Z,101875.25
2023-04-29T16:32:52.163Z,101889.16
2023-04-29T16:35:25.183Z,101892.81
2023-04-29T16:37:53.782Z,101890.56
2023-04-29T16:40:21.411Z,101895.31
2023-04-29T16:42:49.140Z,101898.09
2023-04-29T16:45:17.084Z,101892.78
2023-04-29T16:47:45.285Z,101889.66
2023-04-29T16:50:13.222Z,101899.34
2023-04-29T16:52:42.603Z,101902.00
2023-04-29T16:55:12.005Z,101902.28
2023-04-29T16:57:39.692Z,101904.13
2023-04-29T17:00:11.763Z,101899.63
2023-04-29T17:02:42.859Z,101903.41
2023-04-29T17:05:11.129Z,101910.56
2023-04-29T17:07:39.216Z,101917.72
2023-04-29T17:10:09.657Z,101909.53
2023-04-29T17:12:38.491Z,101913.44
2023-04-29T17:15:07.108Z,101915.09
2023-04-29T17:17:35.041Z,101915.88
2023-04-29T17:20:03.766Z,101919.75
2023-04-29T17:22:32.743Z,101915.69
2023-04-29T17:25:00.617Z,101916.75
2023-04-29T17:27:29.661Z,101914.50
2023-04-29T17:29:57.583Z,101922.50
2023-04-29T17:32:28.741Z,101915.88
2023-04-29T17:34:56.990Z,101919.50
2023-04-29T17:37:25.924Z,101922.66
2023-04-29T17:39:53.951Z,101923.91
2023-04-29T17:42:22.050Z,101923.28
2023-04-29T17:44:51.377Z,101922.81
2023-04-29T17:47:19.259Z,101923.56
2023-04-29T17:49:47.088Z,101921.00
2023-04-29T17:52:15.817Z,101920.28
2023-04-29T17:54:43.611Z,101926.72
2023-04-29T17:57:11.234Z,101929.78
2023-04-29T17:59:38.920Z,101930.59
2023-04-29T18:02:08.180Z,101939.22
2023-04-29T18:04:37.312Z,101937.56
2023-04-29T18:07:05.226Z,101940.91
2023-04-29T18:09:32.981Z,101938.53
2023-04-29T18:12:02.341Z,101951.72
2023-04-29T18:14:31.031Z,101954.63
2023-04-29T18:16:59.381Z,101958.50
2023-04-29T18:19:28.665Z,101959.97
2023-04-29T18:21:58.364Z,101959.25
2023-04-29T18:24:26.626Z,101964.09
2023-04-29T18:26:54.295Z,101963.41
2023-04-29T18:29:21.923Z,101968.13
2023-04-29T18:31:49.656Z,101967.78
2023-04-29T18:34:17.485Z,101965.97
2023-04-29T18:36:46.530Z,101970.69
2023-04-29T18:39:14.186Z,101981.13
2023-04-29T18:41:41.841Z,101988.72
2023-04-29T18:44:09.563Z,101978.44
2023-04-29T18:46:37.225Z,101983.28
2023-04-29T18:49:04.908Z,101983.03
2023-04-29T18:51:32.685Z,101981.09
2023-04-29T18:54:01.691Z,101990.50
2023-04-29T18:56:29.301Z,101999.16
2023-04-29T18:58:56.943Z,101992.53
2023-04-29T19:01:24.677Z,101995.31
2023-04-29T19:03:52.615Z,101999.75
2023-04-29T19:06:20.338Z,102000.00
2023-04-29T19:08:48.033Z,102010.03
2023-04-29T19:11:17.064Z,102002.53
2023-04-29T19:13:44.747Z,102027.41
2023-04-29T19:16:12.511Z,102019.66
2023-04-29T19:18:40.320Z,102029.69
2023-04-29T19:21:08.172Z,102020.13
2023-04-29T19:23:36.156Z,102022.06
2023-04-29T19:26:03.841Z,102024.94
2023-04-29T19:28:32.879Z,102027.81
2023-04-29T19:31:00.552Z,102033.63
2023-04-29T19:33:28.339Z,102039.13
2023-04-29T19:35:56.103Z,102037.69
2023-04-29T19:38:24.327Z,102047.06
2023-04-29T19:40:52.054Z,102046.66
2023-04-29T19:43:19.748Z,102049.66
2023-04-29T19:45:48.847Z,102058.81
2023-04-29T19:48:16.583Z,102052.03
2023-04-29T19:50:44.284Z,102055.88
2023-04-29T19:53:12.449Z,102052.69
2023-04-29T19:55:40.530Z,102057.44
2023-04-29T19:58:08.492Z,102060.34
2023-04-29T20:00:36.461Z,102058.66
2023-04-29T20:03:05.900Z,102051.63
2023-04-29T20:05:34.022Z,102063.00
2023-04-29T20:08:01.808Z,102065.88
2023-04-29T20:10:30.193Z,102064.28
2023-04-29T20:13:00.422Z,102066.06
2023-04-29T20:15:28.474Z,102063.97
2023-04-29T20:17:56.228Z,102073.75
2023-04-29T20:20:26.064Z,102077.59
2023-04-29T20:22:57.991Z,102082.13
2023-04-29T20:25:25.726Z,102077.78
2023-04-29T20:27:54.262Z,102093.22
2023-04-29T20:30:22.225Z,102085.56
2023-04-29T20:32:50.602Z,102098.16
2023-04-29T20:35:18.594Z,102091.41
2023-04-29T20:37:47.715Z,102095.88
2023-04-29T20:40:15.502Z,102099.59
2023-04-29T20:42:43.154Z,102107.53
2023-04-29T20:45:12.020Z,102104.13
2023-04-29T20:47:39.811Z,102103.38
2023-04-29T20:50:08.428Z,102095.66
2023-04-29T20:52:36.631Z,102099.47
2023-04-29T20:55:06.141Z,102104.03
2023-04-29T20:57:33.864Z,102106.88
2023-04-29T21:00:01.647Z,102110.81
2023-04-29T21:02:29.432Z,102115.38
2023-04-29T21:04:57.160Z,102114.75
2023-04-29T21:07:24.889Z,102121.97
2023-04-29T21:09:52.765Z,102118.53
2023-04-29T21:12:22.391Z,102114.19
2023-04-29T21:14:50.040Z,102114.41
2023-04-29T21:17:17.768Z,102118.13
2023-04-29T21:19:45.434Z,102124.47
2023-04-29T21:22:13.126Z,102121.06
2023-04-29T21:24:40.869Z,102117.69
2023-04-29T21:27:08.576Z,102113.41
2023-04-29T21:29:40.762Z,102115.44
2023-04-29T21:32:08.712Z,102127.84
2023-04-29T21:34:36.790Z,102120.00
2023-04-29T21:37:04.822Z,102129.94
2023-04-29T21:39:32.881Z,102131.88
2023-04-29T21:42:03.013Z,102131.97
2023-04-29T21:44:30.711Z,102132.03
2023-04-29T21:47:00.879Z,102138.41
2023-04-29T21:49:28.997Z,102143.94
2023-04-29T21:51:56.920Z,102138.81
2023-04-29T21:54:24.542Z,102141.47
2023-04-29T21:56:52.173Z,102130.13
2023-04-29T21:59:19.929Z,102126.84
2023-04-29T22:01:59.698Z,102143.94
2023-04-29T22:04:29.156Z,102140.84
2023-04-29T22:06:57.160Z,102142.19
2023-04-29T22:09:24.926Z,102142.41
2023-04-29T22:11:52.695Z,102147.59
2023-04-29T22:14:20.389Z,102157.44
2023-04-29T22:16:48.181Z,102152.53
2023-04-29T22:19:16.008Z,102147.25
2023-04-29T22:21:45.065Z,102150.06
2023-04-29T22:24:12.776Z,102148.47
2023-04-29T22:26:40.545Z,102148.59
2023-04-29T22:29:08.202Z,102155.78
2023-04-29T22:31:35.991Z,102143.69
2023-04-29T22:34:03.735Z,102150.88
2023-04-29T22:36:32.066Z,102158.25
2023-04-29T22:39:01.235Z,102149.84
2023-04-29T22:41:29.393Z,102151.75
2023-04-29T22:43:57.800Z,102153.75
2023-04-29T22:46:25.741Z,102154.78
2023-04-29T22:48:53.541Z,102154.13
2023-04-29T22:51:21.333Z,102158.75
2023-04-29T22:53:48.971Z,102157.34
2023-04-29T22:56:18.169Z,102154.72
2023-04-29T22:58:45.868Z,102151.22
2023-04-29T23:01:13.634Z,102160.16
2023-04-29T23:03:41.377Z,102159.44
2023-04-29T23:06:09.141Z,102162.34
2023-04-29T23:08:36.889Z,102155.34
2023-04-29T23:11:04.832Z,102164.34
2023-04-29T23:13:34.018Z,102160.94
2023-04-29T23:16:02.004Z,102165.47
2023-04-29T23:18:29.843Z,102168.31
2023-04-29T23:20:57.801Z,102173.59
2023-04-29T23:23:25.563Z,102175.50
2023-04-29T23:25:53.267Z,102179.94
2023-04-29T23:28:21.009Z,102172.06
2023-04-29T23:30:49.971Z,102185.50
2023-04-29T23:33:17.632Z,102189.00
2023-04-29T23:35:50.424Z,102194.38
2023-04-29T23:38:18.356Z,102195.44
2023-04-29T23:40:46.317Z,102190.19
2023-04-29T23:43:14.880Z,102194.66
2023-04-29T23:45:45.038Z,102185.09
2023-04-29T23:48:15.616Z,102194.00
2023-04-29T23:50:43.372Z,102192.47
2023-04-29T23:53:11.107Z,102199.66
2023-04-29T23:55:38.801Z,102191.13
2023-04-29T23:58:06.456Z,102201.03
